createdAt,value
2018-03-31T00:00:58.475Z,57.07
2018-03-31T00:03:26.928Z,51.17
2018-03-31T00:05:55.715Z,53.93
2018-03-31T00:08:24.505Z,57.03
2018-03-31T00:10:52.782Z,60.10
2018-03-31T00:13:21.871Z,54.47
2018-03-31T00:15:51.408Z,60.17
2018-03-31T00:18:22.109Z,62.30
2018-03-31T00:20:52.125Z,58.00
2018-03-31T00:23:21.229Z,65.33
2018-03-31T00:25:50.609Z,67.13
2018-03-31T00:28:20.084Z,65.13
2018-03-31T00:30:48.533Z,61.60
2018-03-31T00:33:17.866Z,67.20
2018-03-31T00:35:47.068Z,65.93
2018-03-31T00:38:15.598Z,66.70
2018-03-31T00:40:43.982Z,64.40
2018-03-31T00:45:51.811Z,60.73
2018-03-31T00:48:21.220Z,63.47
2018-03-31T00:50:49.683Z,62.50
2018-03-31T00:53:18.264Z,64.83
2018-03-31T00:55:46.604Z,60.40
2018-03-31T00:58:15.458Z,66.40
2018-03-31T01:00:48.115Z,68.07
2018-03-31T01:03:16.699Z,78.87
2018-03-31T01:05:45.026Z,96.53
2018-03-31T01:08:14.566Z,75.50
2018-03-31T01:10:42.962Z,76.80
2018-03-31T01:13:11.468Z,82.13
2018-03-31T01:15:41.669Z,74.53
2018-03-31T01:18:09.960Z,75.10
2018-03-31T01:20:39.055Z,70.93
2018-03-31T01:23:09.382Z,63.93
2018-03-31T01:25:37.852Z,73.83
2018-03-31T01:28:06.995Z,75.50
2018-03-31T01:30:35.662Z,66.73
2018-03-31T01:33:04.781Z,67.00
2018-03-31T01:35:33.215Z,63.33
2018-03-31T01:38:01.696Z,56.07
2018-03-31T01:40:30.216Z,64.03
2018-03-31T01:42:58.756Z,55.83
2018-03-31T01:45:28.775Z,60.77
2018-03-31T01:47:58.147Z,64.90
2018-03-31T01:50:26.557Z,59.90
2018-03-31T01:52:56.232Z,65.07
2018-03-31T01:55:25.356Z,65.33
2018-03-31T01:57:54.464Z,62.97
2018-03-31T02:00:25.733Z,62.43
2018-03-31T02:02:54.496Z,60.07
2018-03-31T02:05:23.116Z,66.50
2018-03-31T02:07:58.482Z,69.80
2018-03-31T02:10:26.908Z,64.53
2018-03-31T02:12:55.391Z,78.10
2018-03-31T02:15:24.524Z,83.83
2018-03-31T02:17:53.269Z,84.57
2018-03-31T02:20:22.505Z,70.30
2018-03-31T02:22:51.759Z,73.40
2018-03-31T02:25:20.254Z,72.90
2018-03-31T02:27:48.639Z,68.63
2018-03-31T02:30:17.080Z,73.40
2018-03-31T02:32:45.492Z,64.80
2018-03-31T02:35:13.874Z,64.47
2018-03-31T02:37:42.462Z,68.67
2018-03-31T02:40:10.913Z,72.33
2018-03-31T02:42:39.309Z,71.50
2018-03-31T02:45:08.864Z,74.40
2018-03-31T02:47:37.308Z,61.43
2018-03-31T02:50:05.630Z,59.07
2018-03-31T02:52:36.564Z,58.93
2018-03-31T02:55:04.807Z,53.80
2018-03-31T02:57:33.520Z,53.17
2018-03-31T03:02:40.207Z,57.87
2018-03-31T03:05:08.500Z,56.07
2018-03-31T03:07:38.111Z,47.60
2018-03-31T03:10:06.469Z,46.53
2018-03-31T03:12:34.815Z,47.47
2018-03-31T03:15:05.032Z,93.50
2018-03-31T03:17:33.113Z,47.87
2018-03-31T03:20:01.985Z,48.30
2018-03-31T03:22:30.285Z,47.70
2018-03-31T03:24:58.364Z,43.50
2018-03-31T03:27:26.434Z,47.97
2018-03-31T03:29:56.596Z,44.40
2018-03-31T03:32:24.827Z,46.27
2018-03-31T03:34:53.004Z,39.23
2018-03-31T03:37:21.176Z,36.53
2018-03-31T03:39:49.463Z,28.40
2018-03-31T03:42:17.731Z,29.37
2018-03-31T03:44:47.543Z,33.80
2018-03-31T03:47:15.820Z,47.33
2018-03-31T03:49:44.096Z,41.20
2018-03-31T03:52:12.174Z,40.03
2018-03-31T03:54:40.544Z,38.03
2018-03-31T03:57:08.600Z,43.43
2018-03-31T03:59:38.709Z,34.87
2018-03-31T04:02:06.712Z,37.60
2018-03-31T04:04:35.608Z,43.93
2018-03-31T04:07:06.961Z,41.73
2018-03-31T04:09:35.227Z,32.80
2018-03-31T04:12:03.196Z,33.63
2018-03-31T04:14:31.381Z,37.33
2018-03-31T04:16:59.399Z,37.40
2018-03-31T04:19:27.756Z,29.43
2018-03-31T04:21:56.205Z,38.17
2018-03-31T04:24:25.171Z,32.93
2018-03-31T04:26:53.511Z,31.40
2018-03-31T04:29:21.804Z,27.10
2018-03-31T04:31:50.133Z,31.43
2018-03-31T04:34:18.307Z,31.30
2018-03-31T04:36:49.147Z,33.90
2018-03-31T04:39:17.414Z,39.17
2018-03-31T04:41:45.502Z,37.33
2018-03-31T04:44:15.509Z,34.23
2018-03-31T04:46:43.890Z,26.00
2018-03-31T04:49:12.596Z,32.80
2018-03-31T04:51:40.787Z,34.50
2018-03-31T04:54:09.041Z,30.27
2018-03-31T04:56:37.838Z,29.20
2018-03-31T04:59:08.595Z,28.17
2018-03-31T05:01:36.951Z,27.87
2018-03-31T05:04:05.252Z,31.70
2018-03-31T05:06:34.691Z,27.30
2018-03-31T05:09:04.813Z,23.00
2018-03-31T05:11:33.961Z,28.30
2018-03-31T05:14:04.970Z,27.27
2018-03-31T05:16:33.148Z,29.03
2018-03-31T05:19:01.321Z,30.60
2018-03-31T05:21:29.422Z,22.50
2018-03-31T05:23:57.464Z,29.70
2018-03-31T05:26:25.588Z,48.23
2018-03-31T05:28:54.878Z,61.40
2018-03-31T05:31:23.337Z,60.83
2018-03-31T05:33:53.959Z,42.40
2018-03-31T05:36:24.320Z,48.93
2018-03-31T05:38:52.602Z,37.80
2018-03-31T05:41:20.586Z,40.23
2018-03-31T05:43:48.909Z,35.60
2018-03-31T05:46:17.018Z,35.73
2018-03-31T05:48:46.182Z,48.33
2018-03-31T05:51:14.460Z,42.70
2018-03-31T05:53:43.253Z,65.23
2018-03-31T05:56:16.670Z,45.43
2018-03-31T05:58:48.055Z,45.93
2018-03-31T06:01:17.904Z,29.30
2018-03-31T06:03:47.212Z,32.93
2018-03-31T06:06:19.589Z,27.17
2018-03-31T06:08:47.660Z,48.17
2018-03-31T06:11:16.837Z,32.47
2018-03-31T06:13:45.341Z,49.50
2018-03-31T06:16:13.306Z,36.63
2018-03-31T06:18:41.383Z,27.67
2018-03-31T06:21:12.124Z,25.23
2018-03-31T06:23:40.288Z,29.53
2018-03-31T06:26:09.289Z,29.10
2018-03-31T06:28:37.469Z,37.80
2018-03-31T06:31:05.594Z,46.90
2018-03-31T06:33:33.834Z,47.17
2018-03-31T06:36:03.678Z,48.47
2018-03-31T06:38:31.796Z,42.60
2018-03-31T06:40:59.888Z,44.53
2018-03-31T06:46:01.763Z,40.50
2018-03-31T06:48:29.925Z,37.63
2018-03-31T06:50:58.848Z,30.37
2018-03-31T06:53:26.991Z,30.23
2018-03-31T06:55:55.880Z,31.47
2018-03-31T06:58:24.977Z,32.37
2018-03-31T07:00:53.048Z,26.77
2018-03-31T07:03:21.433Z,25.63
2018-03-31T07:05:49.748Z,21.20
2018-03-31T07:08:17.872Z,18.20
2018-03-31T07:10:46.046Z,18.70
2018-03-31T07:13:16.244Z,16.63
2018-03-31T07:15:45.215Z,25.40
2018-03-31T07:18:13.237Z,21.50
2018-03-31T07:20:42.270Z,21.30
2018-03-31T07:23:10.244Z,21.07
2018-03-31T07:25:38.278Z,18.17
2018-03-31T07:28:08.905Z,17.87
2018-03-31T07:30:37.036Z,16.70
2018-03-31T07:33:05.273Z,20.57
2018-03-31T07:38:07.146Z,16.40
2018-03-31T07:40:36.335Z,23.17
2018-03-31T07:43:05.589Z,18.57
2018-03-31T07:45:33.717Z,17.20
2018-03-31T07:48:01.734Z,26.50
2018-03-31T07:50:31.703Z,18.57
2018-03-31T07:52:59.856Z,15.80
2018-03-31T07:55:27.945Z,22.53
2018-03-31T07:57:58.994Z,19.07
2018-03-31T08:00:28.188Z,24.30
2018-03-31T08:02:56.159Z,24.83
2018-03-31T08:05:26.369Z,18.60
2018-03-31T08:07:54.757Z,19.93
2018-03-31T08:10:23.268Z,20.03
2018-03-31T08:15:25.023Z,19.60
2018-03-31T08:17:53.601Z,22.63
2018-03-31T08:20:22.747Z,18.37
2018-03-31T08:22:51.513Z,15.87
2018-03-31T08:25:20.521Z,18.97
2018-03-31T08:27:49.403Z,21.47
2018-03-31T08:30:18.413Z,19.60
2018-03-31T08:32:46.442Z,28.80
2018-03-31T08:37:48.379Z,18.33
2018-03-31T08:40:16.387Z,20.80
2018-03-31T08:42:45.322Z,20.50
2018-03-31T08:45:13.477Z,20.83
2018-03-31T08:47:41.637Z,19.90
2018-03-31T08:50:11.908Z,21.40
2018-03-31T08:52:40.750Z,19.13
2018-03-31T08:55:09.024Z,20.73
2018-03-31T08:57:37.302Z,23.97
2018-03-31T09:00:05.465Z,23.53
2018-03-31T09:02:33.795Z,21.50
2018-03-31T09:05:02.759Z,22.33
2018-03-31T09:07:39.770Z,23.57
2018-03-31T09:10:09.587Z,19.37
2018-03-31T09:12:37.631Z,18.13
2018-03-31T09:15:05.804Z,17.63
2018-03-31T09:17:34.652Z,20.00
2018-03-31T09:20:02.837Z,22.30
2018-03-31T09:22:31.137Z,17.50
2018-03-31T09:24:59.314Z,22.27
2018-03-31T09:27:28.201Z,20.37
2018-03-31T09:29:56.308Z,20.40
2018-03-31T09:32:24.558Z,17.97
2018-03-31T09:34:52.762Z,18.13
2018-03-31T09:37:20.828Z,20.97
2018-03-31T09:39:48.871Z,21.20
2018-03-31T09:42:16.981Z,25.57
2018-03-31T09:44:44.988Z,19.70
2018-03-31T09:47:13.046Z,23.93
2018-03-31T09:49:42.079Z,22.10
2018-03-31T09:52:10.257Z,22.63
2018-03-31T09:54:38.329Z,26.70
2018-03-31T09:57:06.406Z,30.47
2018-03-31T09:59:34.475Z,22.30
2018-03-31T10:02:03.365Z,20.10
2018-03-31T10:04:31.535Z,22.87
2018-03-31T10:07:00.097Z,25.93
2018-03-31T10:09:28.600Z,21.20
2018-03-31T10:11:56.564Z,22.33
2018-03-31T10:14:24.590Z,24.23
2018-03-31T10:16:52.944Z,18.60
2018-03-31T10:19:21.102Z,20.10
2018-03-31T10:21:49.074Z,19.30
2018-03-31T10:24:19.030Z,22.70
2018-03-31T10:26:47.062Z,29.83
2018-03-31T10:29:15.146Z,26.10
2018-03-31T10:31:43.816Z,19.63
2018-03-31T10:34:11.723Z,23.60
2018-03-31T10:36:39.653Z,16.90
2018-03-31T10:39:09.673Z,20.27
2018-03-31T10:41:38.570Z,18.00
2018-03-31T10:44:07.253Z,13.93
2018-03-31T10:46:35.322Z,15.83
2018-03-31T10:49:03.447Z,20.70
2018-03-31T10:51:31.667Z,19.70
2018-03-31T10:54:04.763Z,15.57
2018-03-31T10:56:32.689Z,18.30
2018-03-31T10:59:01.726Z,16.17
2018-03-31T11:01:31.642Z,16.77
2018-03-31T11:03:59.877Z,23.00
2018-03-31T11:06:30.038Z,17.20
2018-03-31T11:09:04.454Z,20.93
2018-03-31T11:11:32.477Z,17.23
2018-03-31T11:14:00.440Z,17.97
2018-03-31T11:16:29.600Z,16.87
2018-03-31T11:18:57.639Z,21.57
2018-03-31T11:21:25.636Z,16.20
2018-03-31T11:23:54.710Z,17.60
2018-03-31T11:26:23.225Z,21.53
2018-03-31T11:28:51.185Z,14.70
2018-03-31T11:31:22.120Z,14.87
2018-03-31T11:33:50.217Z,20.20
2018-03-31T11:36:20.526Z,22.60
2018-03-31T11:38:50.304Z,21.30
2018-03-31T11:41:19.540Z,20.10
2018-03-31T11:43:47.577Z,17.43
2018-03-31T11:46:16.299Z,17.53
2018-03-31T11:48:44.420Z,19.50
2018-03-31T11:51:14.222Z,20.83
2018-03-31T11:53:42.361Z,20.90
2018-03-31T11:56:11.650Z,20.07
2018-03-31T11:58:39.732Z,15.60
2018-03-31T12:01:08.829Z,19.17
2018-03-31T12:03:38.232Z,29.03
2018-03-31T12:06:06.348Z,19.23
2018-03-31T12:08:36.174Z,22.67
2018-03-31T12:11:05.009Z,18.90
2018-03-31T12:13:34.039Z,15.57
2018-03-31T12:16:02.852Z,16.47
2018-03-31T12:18:31.052Z,21.20
2018-03-31T12:21:10.611Z,40.57
2018-03-31T12:23:38.517Z,23.07
2018-03-31T12:26:06.517Z,15.53
2018-03-31T12:28:34.712Z,18.93
2018-03-31T12:31:03.310Z,18.70
2018-03-31T12:33:31.416Z,24.33
2018-03-31T12:36:01.301Z,17.73
2018-03-31T12:38:29.482Z,17.17
2018-03-31T12:40:57.546Z,16.90
2018-03-31T12:43:25.606Z,15.47
2018-03-31T12:45:54.100Z,15.70
2018-03-31T12:48:22.376Z,26.03
2018-03-31T12:50:53.211Z,15.40
2018-03-31T12:53:22.236Z,14.77
2018-03-31T12:55:51.310Z,19.10
2018-03-31T12:58:20.349Z,15.50
2018-03-31T13:00:48.195Z,17.20
2018-03-31T13:03:16.240Z,19.40
2018-03-31T13:05:45.060Z,19.90
2018-03-31T13:08:14.923Z,19.10
2018-03-31T13:10:45.706Z,14.63
2018-03-31T13:13:13.879Z,15.70
2018-03-31T13:15:41.915Z,18.30
2018-03-31T13:18:10.896Z,13.73
2018-03-31T13:20:38.999Z,14.10
2018-03-31T13:23:06.964Z,13.87
2018-03-31T13:25:35.090Z,18.03
2018-03-31T13:28:03.212Z,18.00
2018-03-31T13:30:31.173Z,14.30
2018-03-31T13:32:59.397Z,15.63
2018-03-31T13:35:28.750Z,17.37
2018-03-31T13:37:56.938Z,15.60
2018-03-31T13:40:28.437Z,18.40
2018-03-31T13:42:57.466Z,15.70
2018-03-31T13:45:25.832Z,20.20
2018-03-31T13:47:55.697Z,25.80
2018-03-31T13:50:23.746Z,21.80
2018-03-31T13:52:52.627Z,16.03
2018-03-31T13:55:21.631Z,21.80
2018-03-31T13:57:49.708Z,18.47
2018-03-31T14:00:17.852Z,19.40
2018-03-31T14:02:45.951Z,24.50
2018-03-31T14:05:13.911Z,18.10
2018-03-31T14:07:42.000Z,19.60
2018-03-31T14:10:10.983Z,14.80
2018-03-31T14:12:39.984Z,26.50
2018-03-31T14:15:09.792Z,20.30
2018-03-31T14:20:10.851Z,20.17
2018-03-31T14:22:39.030Z,17.20
2018-03-31T14:27:40.407Z,16.30
2018-03-31T14:30:10.891Z,17.87
2018-03-31T14:32:39.923Z,19.63
2018-03-31T14:35:07.879Z,21.07
2018-03-31T14:37:36.085Z,19.57
2018-03-31T14:40:04.154Z,19.23
2018-03-31T14:42:33.232Z,20.33
2018-03-31T14:45:02.125Z,20.67
2018-03-31T14:47:30.160Z,17.17
2018-03-31T14:49:59.438Z,17.07
2018-03-31T14:52:27.508Z,20.67
2018-03-31T14:54:55.629Z,18.43
2018-03-31T14:57:23.823Z,19.60
2018-03-31T14:59:51.830Z,22.57
2018-03-31T15:02:19.981Z,20.53
2018-03-31T15:04:50.920Z,16.00
2018-03-31T15:07:20.145Z,16.73
2018-03-31T15:09:48.174Z,20.10
2018-03-31T15:12:17.320Z,20.03
2018-03-31T15:14:45.491Z,19.20
2018-03-31T15:17:14.492Z,17.17
2018-03-31T15:19:42.714Z,25.53
2018-03-31T15:22:11.601Z,21.77
2018-03-31T15:24:40.602Z,21.20
2018-03-31T15:27:10.099Z,20.00
2018-03-31T15:29:38.177Z,22.23
2018-03-31T15:32:06.556Z,18.93
2018-03-31T15:34:38.216Z,19.77
2018-03-31T15:37:06.290Z,17.17
2018-03-31T15:39:35.385Z,36.73
2018-03-31T15:42:03.567Z,25.20
2018-03-31T15:44:31.732Z,20.20
2018-03-31T15:46:59.706Z,25.40
2018-03-31T15:49:27.795Z,24.40
2018-03-31T15:51:55.770Z,24.53
2018-03-31T15:54:23.615Z,29.83
2018-03-31T15:56:51.696Z,24.70
2018-03-31T15:59:19.584Z,23.03
2018-03-31T16:01:47.552Z,27.33
2018-03-31T16:04:15.530Z,31.73
2018-03-31T16:06:43.439Z,30.73
2018-03-31T16:09:11.309Z,51.70
2018-03-31T16:11:44.077Z,55.40
2018-03-31T16:14:12.019Z,70.00
2018-03-31T16:16:39.919Z,38.07
2018-03-31T16:19:07.860Z,60.57
2018-03-31T16:21:35.778Z,53.90
2018-03-31T16:24:03.684Z,49.70
2018-03-31T16:26:31.617Z,41.60
2018-03-31T16:28:59.530Z,44.30
2018-03-31T16:31:27.392Z,45.30
2018-03-31T16:33:55.438Z,23.30
2018-03-31T16:36:23.332Z,20.30
2018-03-31T16:38:51.274Z,21.17
2018-03-31T16:41:20.026Z,19.53
2018-03-31T16:43:47.907Z,22.93
2018-03-31T16:46:15.752Z,25.97
2018-03-31T16:48:43.741Z,23.83
2018-03-31T16:51:11.747Z,21.83
2018-03-31T16:53:39.628Z,21.57
2018-03-31T16:56:07.570Z,18.77
2018-03-31T16:58:35.506Z,20.70
2018-03-31T17:01:03.365Z,21.00
2018-03-31T17:03:33.033Z,15.20
2018-03-31T17:06:00.892Z,22.20
2018-03-31T17:08:28.860Z,19.17
2018-03-31T17:10:56.825Z,19.07
2018-03-31T17:13:24.781Z,18.97
2018-03-31T17:15:52.739Z,19.60
2018-03-31T17:18:20.644Z,16.73
2018-03-31T17:20:48.519Z,22.20
2018-03-31T17:26:48.104Z,20.73
2018-03-31T17:29:16.104Z,20.33
2018-03-31T17:31:44.064Z,23.43
2018-03-31T17:34:12.001Z,19.97
2018-03-31T17:36:40.022Z,22.53
2018-03-31T17:39:07.969Z,24.97
2018-03-31T17:41:35.878Z,20.87
2018-03-31T17:44:03.867Z,18.30
2018-03-31T17:46:31.755Z,24.20
2018-03-31T17:48:59.682Z,24.13
2018-03-31T17:51:27.568Z,18.93
2018-03-31T17:53:55.463Z,21.37
2018-03-31T17:56:24.051Z,18.83
2018-03-31T17:58:51.906Z,17.77
2018-03-31T18:01:19.923Z,20.20
2018-03-31T18:03:49.421Z,19.60
2018-03-31T18:06:17.312Z,23.50
2018-03-31T18:08:45.233Z,22.97
2018-03-31T18:11:13.970Z,24.83
2018-03-31T18:13:43.573Z,19.23
2018-03-31T18:16:11.567Z,17.70
2018-03-31T18:18:45.797Z,20.67
2018-03-31T18:21:13.720Z,25.30
2018-03-31T18:23:41.612Z,24.27
2018-03-31T18:28:42.952Z,46.27
2018-03-31T18:31:10.893Z,44.73
2018-03-31T18:33:38.784Z,39.73
2018-03-31T18:36:09.500Z,27.80
2018-03-31T18:38:37.379Z,34.97
2018-03-31T18:41:05.270Z,36.70
2018-03-31T18:43:34.106Z,31.03
2018-03-31T18:46:01.968Z,32.97
2018-03-31T18:48:29.903Z,30.17
2018-03-31T18:50:58.625Z,45.47
2018-03-31T18:53:26.539Z,32.50
2018-03-31T18:55:54.427Z,31.27
2018-03-31T19:00:55.150Z,35.00
2018-03-31T19:03:23.141Z,37.90
2018-03-31T19:05:51.060Z,41.93
2018-03-31T19:08:19.073Z,43.83
2018-03-31T19:10:47.175Z,38.37
2018-03-31T19:13:15.610Z,61.30
2018-03-31T19:15:43.677Z,40.47
2018-03-31T19:18:11.667Z,19.30
2018-03-31T19:23:13.959Z,17.20
2018-03-31T19:25:42.856Z,23.77
2018-03-31T19:28:11.988Z,22.50
2018-03-31T19:30:46.576Z,21.90
2018-03-31T19:33:19.250Z,15.87
2018-03-31T19:35:52.957Z,23.40
2018-03-31T19:38:21.953Z,19.50
2018-03-31T19:40:50.332Z,15.77
2018-03-31T19:43:18.417Z,22.70
2018-03-31T19:45:47.392Z,26.03
2018-03-31T19:48:15.526Z,15.67
2018-03-31T19:50:43.645Z,16.53
2018-03-31T19:53:11.869Z,26.30
2018-03-31T19:55:39.730Z,16.77
2018-03-31T19:58:08.591Z,16.07
2018-03-31T20:00:36.524Z,21.63
2018-03-31T20:03:04.476Z,15.90
2018-03-31T20:05:32.648Z,20.40
2018-03-31T20:08:02.436Z,19.20
2018-03-31T20:10:30.367Z,15.23
2018-03-31T20:12:58.251Z,15.07
2018-03-31T20:15:26.200Z,14.63
2018-03-31T20:17:54.095Z,15.37
2018-03-31T20:20:21.979Z,18.33
2018-03-31T20:22:50.708Z,19.10
2018-03-31T20:25:18.559Z,17.93
2018-03-31T20:27:46.404Z,18.97
2018-03-31T20:30:14.369Z,12.73
2018-03-31T20:32:42.279Z,19.37
2018-03-31T20:35:10.331Z,18.00
2018-03-31T20:37:40.688Z,17.90
2018-03-31T20:40:08.608Z,18.63
2018-03-31T20:42:36.479Z,11.37
2018-03-31T20:45:06.979Z,12.97
2018-03-31T20:47:34.864Z,15.13
2018-03-31T20:50:02.766Z,16.27
2018-03-31T20:52:30.673Z,19.50
2018-03-31T20:54:58.611Z,21.00
2018-03-31T20:57:26.521Z,17.60
2018-03-31T20:59:55.487Z,18.00
2018-03-31T21:02:23.477Z,13.77
2018-03-31T21:04:51.596Z,11.90
2018-03-31T21:07:23.410Z,14.93
2018-03-31T21:09:52.696Z,14.23
2018-03-31T21:12:20.837Z,14.93
2018-03-31T21:14:48.957Z,19.10
2018-03-31T21:17:17.236Z,11.57
2018-03-31T21:19:45.428Z,15.57
2018-03-31T21:22:16.149Z,14.17
2018-03-31T21:24:44.160Z,16.20
2018-03-31T21:27:13.766Z,18.63
2018-03-31T21:29:42.746Z,19.80
2018-03-31T21:32:10.881Z,21.90
2018-03-31T21:34:38.965Z,19.30
2018-03-31T21:39:40.343Z,18.60
2018-03-31T21:42:09.329Z,15.73
2018-03-31T21:44:38.291Z,32.20
2018-03-31T21:47:06.229Z,16.90
2018-03-31T21:49:34.769Z,21.43
2018-03-31T21:52:04.209Z,17.83
2018-03-31T21:54:32.360Z,27.10
2018-03-31T21:57:00.570Z,14.67
2018-03-31T22:02:08.245Z,15.70
2018-03-31T22:04:36.226Z,12.40
2018-03-31T22:07:04.164Z,10.80
2018-03-31T22:09:32.150Z,14.40
2018-03-31T22:12:00.057Z,12.70
2018-03-31T22:14:33.421Z,14.03
2018-03-31T22:17:01.310Z,11.67
2018-03-31T22:19:29.270Z,13.83
2018-03-31T22:21:57.199Z,11.90
2018-03-31T22:24:25.098Z,14.13
2018-03-31T22:26:53.004Z,7.90
2018-03-31T22:29:20.932Z,13.80
2018-03-31T22:31:48.796Z,12.27
2018-03-31T22:34:16.664Z,8.53
2018-03-31T22:36:44.600Z,9.43
2018-03-31T22:39:12.452Z,9.10
2018-03-31T22:41:40.364Z,10.97
2018-03-31T22:44:08.262Z,9.20
2018-03-31T22:46:36.135Z,11.20
2018-03-31T22:49:03.994Z,11.67
2018-03-31T22:51:31.924Z,9.00
2018-03-31T22:53:59.806Z,12.03
2018-03-31T22:56:27.724Z,10.23
2018-03-31T22:58:55.623Z,10.30
2018-03-31T23:01:23.488Z,14.63
2018-03-31T23:03:51.725Z,9.90
2018-03-31T23:06:19.934Z,13.83
2018-03-31T23:08:48.092Z,14.83
2018-03-31T23:11:16.370Z,23.67
2018-03-31T23:13:45.477Z,13.90
2018-03-31T23:16:13.652Z,10.80
2018-03-31T23:18:41.884Z,9.90
2018-03-31T23:21:10.158Z,9.40
2018-03-31T23:23:38.327Z,12.13
2018-03-31T23:26:06.594Z,10.40
2018-03-31T23:28:36.624Z,10.33
2018-03-31T23:31:06.219Z,11.23
2018-03-31T23:33:34.594Z,11.43
2018-03-31T23:36:04.580Z,10.13
2018-03-31T23:38:32.596Z,10.60
2018-03-31T23:41:00.757Z,8.50
2018-03-31T23:43:28.758Z,7.20
2018-03-31T23:45:56.805Z,9.20
2018-03-31T23:48:25.692Z,9.97
2018-03-31T23:50:54.579Z,8.37
2018-03-31T23:53:22.476Z,14.47
2018-03-31T23:55:50.356Z,8.53
2018-03-31T23:58:19.200Z,7.70
